Terminal Aerodrome Forecast
Issued by NWS Sioux Falls, SD

Home | Current Version | Previous Version | Graphics & Text | Print | Product List | Glossary Off
Versions: 1 2 3 4 5 6 7 8 9 10 11 12 13 14 15 16 17 18 19 20 21 22 23 24 25 26 27 28 29 30 31 32 33 34

000
FTUS43 KFSD 260643 AAA
TAFSUX
TAF AMD
KSUX 260643Z 2607/2706 32008KT P6SM -RA OVC008
      TEMPO 2607/2610 OVC005
     FM261500 32011KT P6SM OVC015
     FM261800 31009KT P6SM BKN025
     FM262200 33008KT P6SM SCT035=

USA.gov is the U.S. government's official web portal to all federal, state and local government web resources and services.